Time;durP1;ratioP1;P1;durP2;ratioP2;P2;SDS_P1;SDS_P2;PMS_P1;PMS_P2;Temp;Humidity;BMP_temperature;BMP_pressure;BME280_temperature;BME280_humidity;BME280_pressure;Samples;Min_cycle;Max_cycle;Signal;HPM_P1;HPM_P2
2023/10/20 00:00:26;;;;;;;23.23;16.73;;;;;;;15.50;nan;96551.88;4974181;28;20200;-76
2023/10/20 00:02:52;;;;;;;24.57;15.37;;;;;;;15.52;nan;96552.47;4971370;28;20243;-75
2023/10/20 00:05:17;;;;;;;29.27;14.47;;;;;;;15.54;nan;96561.00;4967112;28;20239;-76
2023/10/20 00:07:42;;;;;;;24.97;14.90;;;;;;;15.56;nan;96574.84;4971502;28;20238;-75
2023/10/20 00:10:11;;;;;;;26.77;15.17;;;;;;;15.57;nan;96583.59;4972801;28;20213;-76
2023/10/20 00:12:38;;;;;;;27.60;16.58;;;;;;;15.57;nan;96575.66;4970632;28;20340;-75
2023/10/20 00:15:06;;;;;;;25.42;16.27;;;;;;;15.59;nan;96561.22;4971562;28;20299;-75
2023/10/20 00:17:31;;;;;;;24.08;18.00;;;;;;;15.60;nan;96562.03;4971012;28;20204;-76
2023/10/20 00:19:56;;;;;;;25.30;15.67;;;;;;;15.61;nan;96568.97;4973487;28;20211;-75
2023/10/20 00:22:22;;;;;;;27.20;15.70;;;;;;;15.63;nan;96565.06;4970674;28;20204;-75
2023/10/20 00:24:47;;;;;;;27.07;17.67;;;;;;;15.59;nan;96544.53;4971264;28;20205;-75
2023/10/20 00:27:15;;;;;;;28.53;19.03;;;;;;;15.57;nan;96539.44;4971228;28;20208;-75
2023/10/20 00:29:41;;;;;;;26.73;16.52;;;;;;;15.60;nan;96554.91;4966444;28;20732;-75
2023/10/20 00:32:07;;;;;;;26.10;18.08;;;;;;;15.61;nan;96540.66;4970944;28;20765;-75
2023/10/20 00:34:33;;;;;;;24.47;16.57;;;;;;;15.59;nan;96524.19;4972972;28;20211;-75
2023/10/20 00:36:58;;;;;;;32.00;21.80;;;;;;;15.59;nan;96520.72;4972893;28;21265;-74
2023/10/20 00:39:24;;;;;;;29.53;17.97;;;;;;;15.61;nan;96511.56;4975781;28;20497;-75
2023/10/20 00:41:49;;;;;;;24.50;17.23;;;;;;;15.63;nan;96498.13;4967183;28;20231;-75
2023/10/20 00:44:15;;;;;;;32.53;18.50;;;;;;;15.62;nan;96488.56;4964085;28;20295;-75
2023/10/20 00:46:43;;;;;;;26.23;17.73;;;;;;;15.64;nan;96483.88;4964607;28;20235;-75
2023/10/20 00:49:10;;;;;;;27.00;17.25;;;;;;;15.63;nan;96479.59;4961152;28;20204;-75
2023/10/20 00:51:36;;;;;;;28.02;17.02;;;;;;;15.63;nan;96483.06;4971681;28;20603;-75
2023/10/20 00:54:02;;;;;;;23.48;16.10;;;;;;;15.64;nan;96476.75;4973767;28;20222;-75
2023/10/20 00:56:29;;;;;;;25.93;14.60;;;;;;;15.66;nan;96469.44;4974394;28;20690;-75
2023/10/20 00:58:55;;;;;;;24.15;15.57;;;;;;;15.66;nan;96466.78;4973525;28;20455;-75
2023/10/20 01:01:20;;;;;;;20.97;13.63;;;;;;;15.66;nan;96465.94;4973579;28;20200;-75
2023/10/20 01:03:46;;;;;;;18.13;14.47;;;;;;;15.66;nan;96460.66;4971552;28;20275;-75
2023/10/20 01:06:12;;;;;;;21.00;14.60;;;;;;;15.64;nan;96463.53;4969069;28;21244;-75
2023/10/20 01:08:37;;;;;;;23.93;15.83;;;;;;;15.63;nan;96456.59;4967348;28;20215;-75
2023/10/20 01:11:03;;;;;;;28.63;15.67;;;;;;;15.64;nan;96450.31;4971153;28;20481;-75
2023/10/20 01:13:28;;;;;;;21.57;15.17;;;;;;;15.64;nan;96445.00;4971057;28;20195;-75
2023/10/20 01:15:54;;;;;;;18.17;14.80;;;;;;;15.66;nan;96442.97;4970493;28;20292;-75
2023/10/20 01:18:20;;;;;;;21.60;14.90;;;;;;;15.64;nan;96437.06;4964682;28;20613;-74
2023/10/20 01:20:45;;;;;;;29.00;15.10;;;;;;;15.61;nan;96424.25;4969099;28;20211;-74
2023/10/20 01:23:10;;;;;;;26.00;16.33;;;;;;;15.60;nan;96414.69;4967984;28;20246;-75
2023/10/20 01:25:36;;;;;;;25.03;15.73;;;;;;;15.60;nan;96400.66;4969563;28;20204;-74
2023/10/20 01:28:03;;;;;;;22.77;15.20;;;;;;;15.60;nan;96380.28;4969988;28;20238;-75
2023/10/20 01:30:29;;;;;;;18.95;13.70;;;;;;;15.60;nan;96380.28;4967707;28;20261;-75
2023/10/20 01:32:54;;;;;;;25.33;14.30;;;;;;;15.58;nan;96385.00;4970242;28;20212;-75
2023/10/20 01:35:20;;;;;;;26.73;15.40;;;;;;;15.59;nan;96377.88;4968093;28;20483;-75
2023/10/20 01:37:45;;;;;;;27.17;18.60;;;;;;;15.60;nan;96375.00;4965625;28;20930;-75
2023/10/20 01:40:12;;;;;;;20.17;13.77;;;;;;;15.61;nan;96387.22;4965622;28;20203;-75
2023/10/20 01:42:38;;;;;;;21.10;12.63;;;;;;;15.60;nan;96375.00;4972197;28;20768;-75
2023/10/20 01:45:05;;;;;;;27.88;15.80;;;;;;;15.60;nan;96353.03;4971796;28;20203;-75
2023/10/20 01:47:31;;;;;;;19.80;14.93;;;;;;;15.55;nan;96355.47;4970688;28;20191;-75
2023/10/20 01:49:56;;;;;;;19.93;14.07;;;;;;;15.54;nan;96359.16;4966684;28;20277;-75
2023/10/20 01:52:22;;;;;;;19.90;13.60;;;;;;;15.54;nan;96359.16;4966133;28;21001;-75
2023/10/20 01:54:47;;;;;;;21.60;14.13;;;;;;;15.55;nan;96344.91;4974207;28;20258;-75
2023/10/20 01:57:12;;;;;;;24.80;14.57;;;;;;;15.56;nan;96333.31;4971472;28;20208;-75
2023/10/20 01:59:38;;;;;;;23.70;16.00;;;;;;;15.50;nan;96321.75;4972131;28;21225;-75
2023/10/20 02:02:04;;;;;;;14.07;12.17;;;;;;;15.48;nan;96302.63;4963348;28;20200;-75
2023/10/20 02:04:30;;;;;;;30.43;14.37;;;;;;;15.45;nan;96284.53;4968155;28;20205;-75
2023/10/20 02:06:56;;;;;;;19.70;13.65;;;;;;;15.45;nan;96258.06;4967723;28;20274;-75
2023/10/20 02:09:22;;;;;;;22.30;12.87;;;;;;;15.42;nan;96238.16;4967960;28;20207;-75
2023/10/20 02:11:47;;;;;;;22.00;13.87;;;;;;;15.43;nan;96231.81;4968762;28;20485;-75
2023/10/20 02:14:12;;;;;;;24.67;14.10;;;;;;;15.40;nan;96223.50;4970505;28;20549;-75
2023/10/20 02:16:38;;;;;;;18.83;13.47;;;;;;;15.39;nan;96213.94;4966823;28;20278;-75
2023/10/20 02:19:04;;;;;;;21.60;12.95;;;;;;;15.38;nan;96201.75;4959338;28;20218;-75
2023/10/20 02:21:30;;;;;;;20.53;14.07;;;;;;;15.38;nan;96196.47;4960529;28;20278;-75
2023/10/20 02:23:56;;;;;;;25.93;14.03;;;;;;;15.37;nan;96193.00;4966459;28;20286;-75
2023/10/20 02:26:21;;;;;;;26.37;14.57;;;;;;;15.38;nan;96180.59;4968925;28;20231;-76
2023/10/20 02:28:47;;;;;;;21.27;13.47;;;;;;;15.38;nan;96168.19;4964423;28;20559;-76
2023/10/20 02:31:19;;;;;;;18.33;12.60;;;;;;;15.40;nan;96152.09;4964385;28;21056;-76
2023/10/20 02:33:46;;;;;;;15.25;12.85;;;;;;;15.41;nan;96124.63;4965790;28;20215;-76
2023/10/20 02:36:18;;;;;;;22.65;16.00;;;;;;;15.42;nan;96113.03;4969621;28;20223;-76
2023/10/20 02:38:44;;;;;;;22.30;13.35;;;;;;;15.42;nan;96094.53;4967999;28;20579;-76
2023/10/20 02:41:10;;;;;;;24.00;14.07;;;;;;;15.42;nan;96068.09;4967682;28;20927;-76
2023/10/20 02:43:36;;;;;;;17.50;11.80;;;;;;;15.41;nan;96066.44;4966919;28;20211;-77
2023/10/20 02:46:02;;;;;;;19.30;12.27;;;;;;;15.43;nan;96056.47;4969543;28;20200;-76
2023/10/20 02:48:28;;;;;;;18.42;10.50;;;;;;;15.42;nan;96044.28;4970017;28;20203;-76
2023/10/20 02:50:54;;;;;;;18.63;12.98;;;;;;;15.41;nan;96050.59;4981940;28;20924;-76
2023/10/20 02:53:19;;;;;;;23.27;13.00;;;;;;;15.40;nan;96051.63;4970701;28;20727;-76
2023/10/20 02:55:45;;;;;;;16.37;10.83;;;;;;;15.40;nan;96044.50;4972389;28;20222;-75
2023/10/20 02:58:11;;;;;;;15.17;10.80;;;;;;;15.40;nan;96036.56;4972010;28;20811;-76
2023/10/20 03:00:45;;;;;;;15.90;10.75;;;;;;;15.40;nan;96047.13;4973501;28;20550;-76
2023/10/20 03:03:12;;;;;;;17.60;10.98;;;;;;;15.38;nan;96043.88;4973517;28;20263;-75
2023/10/20 03:05:43;;;;;;;18.95;12.82;;;;;;;15.37;nan;96052.06;4977812;28;20210;-76
2023/10/20 03:08:12;;;;;;;17.38;11.00;;;;;;;15.36;nan;96051.22;4974948;28;20203;-76
2023/10/20 03:10:38;;;;;;;20.10;11.30;;;;;;;15.36;nan;96029.25;4976225;28;20188;-76
2023/10/20 03:13:04;;;;;;;16.00;11.10;;;;;;;15.34;nan;96020.72;4973202;28;20218;-76
2023/10/20 03:15:31;;;;;;;12.67;9.10;;;;;;;15.34;nan;96015.44;4976973;28;20674;-76
2023/10/20 03:17:56;;;;;;;13.25;9.65;;;;;;;15.33;nan;95987.38;4976382;28;20458;-74
2023/10/20 03:20:28;;;;;;;11.80;7.80;;;;;;;15.34;nan;96020.72;4969782;28;20199;-75
2023/10/20 03:22:54;;;;;;;11.98;9.90;;;;;;;15.32;nan;96018.31;4968197;28;20940;-75
2023/10/20 03:25:20;;;;;;;12.45;9.30;;;;;;;15.33;nan;96004.06;4968306;28;20266;-74
2023/10/20 03:27:47;;;;;;;17.10;9.30;;;;;;;15.35;nan;96025.00;4964754;28;20215;-75
2023/10/20 03:30:12;;;;;;;13.25;9.40;;;;;;;15.36;nan;96010.75;4964029;28;20451;-74
2023/10/20 03:32:38;;;;;;;17.00;9.03;;;;;;;15.37;nan;95997.31;4963311;28;20246;-74
2023/10/20 03:35:04;;;;;;;12.53;9.37;;;;;;;15.36;nan;95994.88;4982435;28;20776;-75
2023/10/20 03:37:29;;;;;;;12.47;8.40;;;;;;;15.36;nan;96010.75;4988033;28;20210;-74
2023/10/20 03:39:55;;;;;;;9.63;7.27;;;;;;;15.35;nan;96019.72;4966474;28;20311;-74
2023/10/20 03:42:21;;;;;;;10.20;7.60;;;;;;;15.35;nan;96004.66;4965462;28;20191;-75
2023/10/20 03:44:48;;;;;;;11.13;8.50;;;;;;;15.32;nan;96007.75;4965026;28;20196;-74
2023/10/20 03:47:14;;;;;;;11.45;7.93;;;;;;;15.32;nan;95988.44;4961964;28;20216;-74
2023/10/20 03:49:41;;;;;;;14.27;12.13;;;;;;;15.31;nan;95971.75;4963611;28;20741;-74
2023/10/20 03:52:07;;;;;;;12.38;9.57;;;;;;;15.31;nan;95953.25;4964526;28;20354;-75
2023/10/20 03:54:34;;;;;;;9.80;8.50;;;;;;;15.30;nan;95940.22;4962922;28;20961;-74
2023/10/20 03:57:00;;;;;;;11.77;8.48;;;;;;;15.29;nan;95949.19;4968995;28;21051;-75
2023/10/20 03:59:25;;;;;;;11.90;8.63;;;;;;;15.25;nan;95954.91;4972465;28;20255;-74
2023/10/20 04:01:53;;;;;;;10.40;8.53;;;;;;;15.23;nan;95946.41;4969397;28;20211;-75
2023/10/20 04:04:19;;;;;;;12.73;9.52;;;;;;;15.21;nan;95927.28;4970394;28;20207;-75
2023/10/20 04:06:45;;;;;;;13.10;8.53;;;;;;;15.19;nan;95912.66;4970619;28;20204;-74
2023/10/20 04:09:11;;;;;;;12.63;8.85;;;;;;;15.17;nan;95877.72;4975657;28;20193;-75
2023/10/20 04:11:38;;;;;;;14.05;8.43;;;;;;;15.16;nan;95861.03;4970389;28;20200;-75
2023/10/20 04:14:08;;;;;;;9.80;7.78;;;;;;;15.15;nan;95840.94;4971051;28;20300;-74
2023/10/20 04:16:41;;;;;;;9.77;7.65;;;;;;;15.13;nan;95821.03;4972087;28;20222;-75
2023/10/20 04:19:10;;;;;;;11.57;7.82;;;;;;;15.12;nan;95796.44;4972851;28;20201;-74
2023/10/20 04:21:39;;;;;;;12.15;7.13;;;;;;;15.10;nan;95787.91;4969864;28;20192;-75
2023/10/20 04:24:09;;;;;;;9.05;7.30;;;;;;;15.11;nan;95792.16;4972375;28;20200;-74
2023/10/20 04:26:36;;;;;;;11.82;7.88;;;;;;;15.12;nan;95788.50;4971681;28;20562;-74
2023/10/20 04:51:01;;;;;;;10.15;7.25;;;;;;;15.08;nan;95736.31;4974069;28;20235;-75
2023/10/20 04:58:54;;;;;;;12.13;6.30;;;;;;;15.02;nan;95683.31;4975278;28;20326;-76
2023/10/20 05:01:26;;;;;;;9.07;7.47;;;;;;;15.02;nan;95678.00;4975478;28;20243;-75
2023/10/20 05:03:57;;;;;;;10.57;7.32;;;;;;;15.02;nan;95674.56;4975965;28;20753;-75
2023/10/20 05:06:26;;;;;;;9.30;6.10;;;;;;;15.03;nan;95671.69;4974427;28;20618;-76
2023/10/20 05:08:52;;;;;;;7.70;5.75;;;;;;;15.05;nan;95679.41;4972193;28;20884;-75
2023/10/20 05:11:17;;;;;;;9.80;7.00;;;;;;;15.08;nan;95668.38;4965612;28;20780;-75
2023/10/20 05:13:43;;;;;;;9.13;5.70;;;;;;;15.10;nan;95666.34;4964507;28;20478;-75
2023/10/20 05:16:12;;;;;;;7.53;6.50;;;;;;;15.11;nan;95664.50;4961951;28;20694;-75
2023/10/20 05:18:39;;;;;;;8.45;6.57;;;;;;;15.06;nan;95657.22;4972202;28;20208;-75
2023/10/20 05:21:08;;;;;;;8.70;6.90;;;;;;;15.09;nan;95642.75;4972120;28;20192;-75
2023/10/20 05:23:34;;;;;;;10.98;7.18;;;;;;;15.10;nan;95634.63;4973123;28;20745;-74
2023/10/20 05:25:59;;;;;;;9.40;7.37;;;;;;;15.11;nan;95599.22;4973705;28;20212;-75
2023/10/20 05:28:25;;;;;;;9.23;8.03;;;;;;;15.11;nan;95593.13;4973708;28;20702;-75
2023/10/20 05:30:50;;;;;;;8.23;6.30;;;;;;;15.11;nan;95582.56;4971587;28;20663;-75
2023/10/20 05:33:16;;;;;;;9.77;7.20;;;;;;;15.10;nan;95581.75;4965596;28;20200;-75
2023/10/20 05:35:41;;;;;;;9.53;7.40;;;;;;;15.10;nan;95594.19;4972842;28;20258;-74
2023/10/20 05:38:07;;;;;;;8.37;7.23;;;;;;;15.09;nan;95606.56;4973639;28;20208;-75
2023/10/20 05:40:35;;;;;;;7.93;6.20;;;;;;;15.10;nan;95610.03;4971900;28;20192;-75
2023/10/20 05:43:03;;;;;;;7.53;6.72;;;;;;;15.11;nan;95623.00;4972620;28;20549;-75
2023/10/20 05:45:32;;;;;;;8.80;5.95;;;;;;;15.12;nan;95624.66;4973370;28;20219;-75
2023/10/20 05:47:59;;;;;;;7.80;5.55;;;;;;;15.13;nan;95620.16;4972674;28;20249;-75
2023/10/20 05:50:24;;;;;;;6.72;5.50;;;;;;;15.13;nan;95605.09;4971175;28;20266;-74
2023/10/20 05:52:53;;;;;;;8.10;5.60;;;;;;;15.13;nan;95594.53;4952433;28;20208;-74
2023/10/20 05:55:19;;;;;;;7.93;6.82;;;;;;;15.13;nan;95583.97;4951868;28;20216;-74
2023/10/20 05:57:45;;;;;;;7.53;5.80;;;;;;;15.13;nan;95586.59;4953789;28;20212;-75
2023/10/20 06:00:13;;;;;;;12.23;6.90;;;;;;;15.14;nan;95598.78;4954058;28;20679;-74
2023/10/20 06:02:40;;;;;;;6.25;4.82;;;;;;;15.15;nan;95604.84;4953295;28;20270;-74
2023/10/20 06:05:07;;;;;;;6.20;5.60;;;;;;;15.15;nan;95596.94;4945747;28;20746;-74
2023/10/20 06:07:32;;;;;;;7.70;6.77;;;;;;;15.17;nan;95587.75;4947410;28;20556;-75
2023/10/20 06:09:58;;;;;;;20.67;6.90;;;;;;;15.19;nan;95601.56;4949771;28;20697;-74
2023/10/20 06:12:23;;;;;;;8.40;6.60;;;;;;;15.16;nan;95606.50;4949168;28;20232;-76
2023/10/20 06:14:49;;;;;;;11.67;6.10;;;;;;;15.22;nan;95621.44;4947443;28;20690;-76
2023/10/20 06:17:17;;;;;;;6.70;5.30;;;;;;;15.23;nan;95645.03;4949366;28;20220;-76
2023/10/20 06:19:44;;;;;;;6.50;5.90;;;;;;;15.24;nan;95633.41;4950736;28;20201;-77
2023/10/20 06:22:09;;;;;;;8.25;7.43;;;;;;;15.24;nan;95622.84;4949921;28;20231;-76
2023/10/20 06:24:35;;;;;;;10.30;6.73;;;;;;;15.26;nan;95641.94;4930923;28;20575;-76
2023/10/20 06:27:02;;;;;;;6.77;6.07;;;;;;;15.26;nan;95634.00;4951097;28;20206;-76
2023/10/20 06:29:38;;;;;;;9.20;6.72;;;;;;;15.27;nan;95661.22;4950872;28;20760;-76
2023/10/20 06:32:19;;;;;;;8.25;6.13;;;;;;;15.27;nan;95685.81;4950552;28;20826;-76
2023/10/20 06:34:46;;;;;;;6.80;5.32;;;;;;;15.26;nan;95721.25;4952438;28;20272;-76
2023/10/20 06:39:56;;;;;;;8.90;7.70;;;;;;;15.24;nan;95739.16;4949714;28;20680;-76
2023/10/20 06:42:22;;;;;;;9.93;8.37;;;;;;;15.23;nan;95758.69;4951285;28;20207;-77
2023/10/20 06:44:48;;;;;;;12.40;9.20;;;;;;;15.23;nan;95773.75;4953594;28;20201;-76
2023/10/20 06:47:14;;;;;;;10.88;9.65;;;;;;;15.22;nan;95796.72;4954190;28;20208;-76
2023/10/20 06:49:39;;;;;;;11.03;8.43;;;;;;;15.21;nan;95800.41;4951968;28;20497;-76
2023/10/20 06:52:04;;;;;;;8.63;7.57;;;;;;;15.25;nan;95816.63;4968769;28;20317;-76
2023/10/20 06:54:30;;;;;;;14.40;10.40;;;;;;;15.24;nan;95826.38;4973007;28;20204;-76
2023/10/20 06:56:56;;;;;;;15.57;9.87;;;;;;;15.23;nan;95831.91;4972744;28;20237;-76
2023/10/20 06:59:21;;;;;;;10.87;8.77;;;;;;;15.24;nan;95841.44;4975274;28;20451;-76
2023/10/20 07:01:47;;;;;;;14.70;9.50;;;;;;;15.26;nan;95857.91;4970493;28;20225;-76
2023/10/20 07:04:13;;;;;;;13.80;10.10;;;;;;;15.26;nan;95871.94;4969228;28;20211;-76
2023/10/20 07:06:40;;;;;;;20.05;11.85;;;;;;;15.25;nan;95870.28;4971839;28;20322;-76
2023/10/20 07:09:13;;;;;;;15.05;10.88;;;;;;;15.26;nan;95873.78;4972219;28;20196;-76
2023/10/20 07:14:20;;;;;;;16.13;11.80;;;;;;;15.32;nan;95898.53;5655815;23;20303;-74
2023/10/20 07:16:45;;;;;;;16.37;11.17;;;;;;;15.31;nan;95905.66;4923087;28;20660;-75
2023/10/20 07:19:11;;;;;;;21.17;13.83;;;;;;;15.33;nan;95900.13;4924343;28;20216;-74
2023/10/20 07:21:36;;;;;;;17.17;12.00;;;;;;;15.35;nan;95906.81;4922695;28;20197;-75
2023/10/20 07:24:03;;;;;;;17.63;13.60;;;;;;;15.37;nan;95893.41;4922702;28;20208;-75
2023/10/20 07:26:29;;;;;;;15.50;11.65;;;;;;;15.40;nan;95903.53;4924934;28;20627;-75
2023/10/20 07:28:54;;;;;;;18.30;12.33;;;;;;;15.43;nan;95901.25;4926955;28;20214;-75
2023/10/20 07:31:21;;;;;;;20.07;13.77;;;;;;;15.45;nan;95907.13;4932345;28;20492;-75
2023/10/20 07:33:49;;;;;;;17.10;12.43;;;;;;;15.47;nan;95920.13;4930410;28;20248;-75
2023/10/20 07:36:15;;;;;;;19.40;12.18;;;;;;;15.52;nan;95924.75;4931789;28;20213;-75
2023/10/20 07:38:42;;;;;;;23.50;12.18;;;;;;;15.53;nan;95932.50;4934325;28;20197;-75
2023/10/20 07:41:11;;;;;;;19.98;11.77;;;;;;;15.58;nan;95932.66;4933593;28;20252;-75
2023/10/20 07:43:39;;;;;;;15.80;10.98;;;;;;;15.63;nan;95946.00;4933913;28;20213;-75
2023/10/20 07:46:05;;;;;;;17.58;11.15;;;;;;;15.67;nan;95954.31;4927603;28;20205;-75
2023/10/20 07:48:32;;;;;;;12.97;9.10;;;;;;;15.70;nan;95961.84;4931560;28;20601;-75
2023/10/20 07:51:01;;;;;;;18.52;11.55;;;;;;;15.76;nan;95965.47;4928443;28;20232;-75
2023/10/20 07:53:27;;;;;;;12.73;8.38;;;;;;;15.80;nan;95962.16;4929108;28;20212;-75
2023/10/20 07:58:33;;;;;;;11.07;9.77;;;;;;;15.92;nan;95959.56;5117081;23;20628;-78
2023/10/20 08:01:00;;;;;;;8.70;7.00;;;;;;;15.98;nan;95950.75;4934841;28;20204;-78
2023/10/20 08:03:26;;;;;;;9.73;7.22;;;;;;;16.03;nan;95964.13;4943839;28;20194;-78
2023/10/20 08:05:52;;;;;;;10.07;7.23;;;;;;;16.07;nan;95970.63;4940509;28;20403;-77
2023/10/20 08:08:18;;;;;;;11.75;8.18;;;;;;;16.11;nan;95984.22;4938549;28;20684;-78
2023/10/20 08:13:09;;;;;;;9.57;6.43;;;;;;;16.15;nan;95970.31;4916177;28;20478;-81
2023/10/20 08:15:38;;;;;;;7.57;6.35;;;;;;;16.21;nan;95981.84;4920999;28;20213;-78
2023/10/20 08:18:05;;;;;;;6.30;5.70;;;;;;;16.25;nan;95980.38;4932689;28;20306;-78
2023/10/20 08:20:31;;;;;;;6.80;5.25;;;;;;;16.30;nan;95992.94;4931333;28;20237;-80
2023/10/20 08:22:56;;;;;;;7.13;5.90;;;;;;;16.31;nan;96005.97;4930941;28;20672;-79
2023/10/20 08:25:21;;;;;;;6.43;5.50;;;;;;;16.37;nan;96013.03;4932351;28;20209;-80
2023/10/20 08:27:50;;;;;;;8.50;4.77;;;;;;;16.43;nan;96013.97;4932914;28;20197;-79
2023/10/20 08:30:16;;;;;;;6.53;4.80;;;;;;;16.47;nan;96028.41;4933367;28;20964;-79
2023/10/20 08:32:42;;;;;;;6.03;4.70;;;;;;;16.52;nan;96028.53;4931834;28;20315;-80
2023/10/20 08:35:08;;;;;;;5.43;4.40;;;;;;;16.55;nan;96032.56;4934263;28;20284;-80
2023/10/20 08:37:34;;;;;;;9.43;4.72;;;;;;;16.58;nan;96043.53;4946863;28;20198;-80
2023/10/20 08:40:00;;;;;;;6.07;4.75;;;;;;;16.62;nan;96049.19;4934709;28;20207;-81
2023/10/20 08:42:25;;;;;;;4.77;3.70;;;;;;;16.65;nan;96045.28;4934143;28;21028;-81
2023/10/20 08:44:51;;;;;;;3.70;3.30;;;;;;;16.67;nan;96051.19;4933707;28;20205;-81
2023/10/20 08:47:19;;;;;;;5.00;2.00;;;;;;;16.72;nan;96062.75;4936538;28;20217;-80
2023/10/20 08:49:46;;;;;;;2.23;2.03;;;;;;;16.76;nan;96069.19;4939659;28;20296;-83
2023/10/20 08:52:12;;;;;;;3.00;1.92;;;;;;;16.82;nan;96064.88;4944762;28;20581;-83
2023/10/20 08:54:46;;;;;;;1.63;1.52;;;;;;;16.93;nan;96071.25;4949047;28;20210;-83
2023/10/20 08:57:11;;;;;;;2.45;1.73;;;;;;;16.98;nan;96079.34;4944164;28;20204;-83
2023/10/20 08:59:37;;;;;;;1.50;1.17;;;;;;;17.03;nan;96082.13;4943713;28;20206;-82
2023/10/20 09:02:02;;;;;;;1.63;1.30;;;;;;;17.10;nan;96074.91;4946747;28;20230;-83
2023/10/20 09:04:28;;;;;;;1.63;1.53;;;;;;;17.11;nan;96081.81;4945857;28;20292;-84
2023/10/20 09:06:55;;;;;;;2.70;1.50;;;;;;;17.13;nan;96073.66;4945474;28;21135;-84
2023/10/20 09:09:20;;;;;;;1.33;1.10;;;;;;;17.12;nan;96070.19;4954107;28;20370;-83
2023/10/20 09:11:47;;;;;;;1.80;1.17;;;;;;;17.12;nan;96075.50;4951865;28;20516;-82
2023/10/20 09:14:14;;;;;;;1.60;1.07;;;;;;;17.14;nan;96091.16;4945282;28;20199;-82
2023/10/20 09:16:39;;;;;;;1.48;0.85;;;;;;;17.18;nan;96105.63;4944140;28;20487;-83
2023/10/20 09:19:06;;;;;;;1.67;1.20;;;;;;;17.20;nan;96114.97;4948737;28;20276;-83
2023/10/20 09:21:31;;;;;;;2.07;0.97;;;;;;;17.22;nan;96115.53;4945765;28;20326;-83
2023/10/20 09:24:06;;;;;;;1.57;0.90;;;;;;;17.20;nan;96112.31;4944178;28;20482;-83
2023/10/20 09:26:37;;;;;;;1.20;1.00;;;;;;;17.20;nan;96130.03;4942724;28;20195;-82
2023/10/20 09:29:07;;;;;;;1.48;0.90;;;;;;;17.17;nan;96135.78;4945180;28;20472;-82
2023/10/20 09:31:33;;;;;;;1.27;1.17;;;;;;;17.15;nan;96141.34;4947116;28;20741;-83
2023/10/20 09:33:59;;;;;;;1.13;1.02;;;;;;;17.16;nan;96147.44;4947195;28;20512;-83
2023/10/20 09:36:28;;;;;;;1.10;0.83;;;;;;;17.20;nan;96146.78;4947225;28;20236;-83
2023/10/20 09:38:55;;;;;;;1.20;0.93;;;;;;;17.22;nan;96141.25;4947537;28;20461;-82
2023/10/20 09:41:27;;;;;;;1.02;0.93;;;;;;;17.23;nan;96150.84;4948826;28;20688;-83
2023/10/20 09:44:07;;;;;;;1.70;1.00;;;;;;;17.27;nan;96145.88;4945542;28;20274;-82
2023/10/20 09:46:45;;;;;;;1.17;1.08;;;;;;;17.28;nan;96155.44;4946314;28;21097;-82
2023/10/20 09:49:14;;;;;;;1.27;1.00;;;;;;;17.31;nan;96160.28;4950409;28;20205;-82
2023/10/20 09:51:44;;;;;;;1.00;0.90;;;;;;;17.33;nan;96166.19;4947019;28;20209;-81
2023/10/20 09:54:11;;;;;;;2.00;1.10;;;;;;;17.34;nan;96171.28;4946315;28;20832;-82
2023/10/20 09:56:38;;;;;;;1.60;1.27;;;;;;;17.37;nan;96170.84;4945169;28;21022;-82
2023/10/20 09:59:05;;;;;;;1.88;1.30;;;;;;;17.38;nan;96179.59;4945918;28;20580;-82
2023/10/20 10:01:31;;;;;;;2.28;1.05;;;;;;;17.40;nan;96190.81;4944616;28;20201;-82
2023/10/20 10:04:03;;;;;;;2.03;1.20;;;;;;;17.39;nan;96197.97;4950061;28;20200;-80
2023/10/20 10:06:37;;;;;;;1.43;1.20;;;;;;;17.41;nan;96200.38;4949641;28;20466;-82
2023/10/20 10:09:05;;;;;;;1.30;1.20;;;;;;;17.42;nan;96200.16;4945996;28;20486;-81
2023/10/20 10:11:44;;;;;;;1.30;1.20;;;;;;;17.44;nan;96194.63;4948919;28;21128;-81
2023/10/20 10:14:25;;;;;;;1.10;0.90;;;;;;;17.41;nan;96200.38;4947596;28;21054;-82
2023/10/20 10:16:55;;;;;;;1.40;1.10;;;;;;;17.37;nan;96205.31;4946221;28;20493;-81
2023/10/20 10:19:25;;;;;;;1.60;1.20;;;;;;;17.36;nan;96214.31;4940970;28;20462;-81
2023/10/20 10:21:53;;;;;;;3.03;1.33;;;;;;;17.37;nan;96210.63;4945425;28;20747;-82
2023/10/20 10:24:23;;;;;;;1.70;1.42;;;;;;;17.40;nan;96210.19;4945642;28;20475;-82
2023/10/20 10:26:57;;;;;;;1.90;1.70;;;;;;;17.44;nan;96215.84;4928545;28;20241;-81
2023/10/20 10:29:48;;;;;;;1.30;1.00;;;;;;;17.50;nan;96230.03;4936597;28;20477;-81
2023/10/20 10:32:14;;;;;;;2.53;1.13;;;;;;;17.51;nan;96221.88;4937316;28;20212;-82
2023/10/20 10:34:43;;;;;;;1.90;1.30;;;;;;;17.57;nan;96230.78;4939762;28;20466;-81
2023/10/20 10:37:09;;;;;;;1.50;1.33;;;;;;;17.63;nan;96228.06;4936520;28;20480;-82
2023/10/20 10:39:34;;;;;;;3.17;1.13;;;;;;;17.66;nan;96218.81;4931739;28;20830;-83
2023/10/20 10:42:05;;;;;;;1.50;1.27;;;;;;;17.69;nan;96213.88;4938552;28;20207;-81
2023/10/20 10:44:34;;;;;;;1.10;0.80;;;;;;;17.75;nan;96214.81;4940023;28;20442;-82
2023/10/20 10:47:04;;;;;;;0.80;0.80;;;;;;;17.78;nan;96222.31;4942487;28;20464;-83
2023/10/20 10:49:33;;;;;;;1.10;1.00;;;;;;;17.77;nan;96214.56;4944726;28;21161;-83
2023/10/20 10:52:04;;;;;;;0.90;0.70;;;;;;;17.81;nan;96229.06;4944548;28;20478;-81
2023/10/20 10:54:33;;;;;;;0.83;0.83;;;;;;;17.79;nan;96245.19;4946446;28;20524;-80
2023/10/20 10:57:02;;;;;;;1.60;1.17;;;;;;;17.79;nan;96239.09;4953464;28;20933;-84
2023/10/20 10:59:29;;;;;;;1.43;1.03;;;;;;;17.77;nan;96233.97;4948455;28;20536;-83
2023/10/20 11:01:55;;;;;;;1.20;1.10;;;;;;;17.80;nan;96225.59;4947908;28;20480;-83
2023/10/20 11:04:22;;;;;;;1.47;0.90;;;;;;;17.87;nan;96236.91;4945598;28;20714;-82
2023/10/20 11:06:47;;;;;;;1.53;1.40;;;;;;;17.86;nan;96243.28;4953191;28;20473;-84
2023/10/20 11:09:19;;;;;;;1.73;0.90;;;;;;;17.84;nan;96244.53;4949128;28;20507;-81
2023/10/20 11:11:47;;;;;;;2.70;1.17;;;;;;;17.85;nan;96249.63;4948275;28;20235;-83
2023/10/20 11:14:17;;;;;;;1.33;0.80;;;;;;;17.87;nan;96252.84;4950690;28;20506;-84
2023/10/20 11:16:43;;;;;;;1.13;1.00;;;;;;;17.88;nan;96254.47;4951893;28;20494;-80
2023/10/20 11:19:11;;;;;;;1.00;0.90;;;;;;;17.88;nan;96251.81;4943944;28;20591;-82
2023/10/20 11:21:45;;;;;;;2.47;1.03;;;;;;;17.86;nan;96255.75;4944655;28;20472;-81
2023/10/20 11:24:11;;;;;;;5.83;1.03;;;;;;;17.80;nan;96246.84;4938923;28;20732;-82
2023/10/20 11:26:37;;;;;;;1.33;0.80;;;;;;;17.77;nan;96255.22;4947696;28;20835;-82
2023/10/20 11:29:04;;;;;;;0.63;0.60;;;;;;;17.72;nan;96255.09;4947836;28;20865;-82
2023/10/20 11:31:29;;;;;;;1.30;1.00;;;;;;;17.65;nan;96260.47;4946706;28;20223;-82
2023/10/20 11:33:55;;;;;;;0.80;0.80;;;;;;;17.57;nan;96262.63;4949287;28;20511;-80
2023/10/20 11:36:20;;;;;;;1.60;0.63;;;;;;;17.50;nan;96285.78;4945450;28;20213;-82
2023/10/20 11:38:46;;;;;;;1.03;0.77;;;;;;;17.39;nan;96289.97;4949442;28;20264;-82
2023/10/20 11:41:11;;;;;;;0.90;0.80;;;;;;;17.34;nan;96301.28;4948605;28;20223;-82
2023/10/20 11:43:37;;;;;;;0.90;0.70;;;;;;;17.28;nan;96312.75;4948431;28;20205;-80
2023/10/20 11:46:05;;;;;;;6.27;0.80;;;;;;;17.23;nan;96310.78;4939577;28;20786;-81
2023/10/20 11:48:30;;;;;;;0.80;0.80;;;;;;;17.22;nan;96313.63;4947412;28;20201;-82
2023/10/20 11:50:55;;;;;;;0.80;0.60;;;;;;;17.15;nan;96316.38;4945549;28;21356;-82
2023/10/20 11:53:21;;;;;;;0.93;0.70;;;;;;;17.12;nan;96310.69;4947233;28;20209;-82
2023/10/20 11:55:46;;;;;;;1.07;0.73;;;;;;;17.10;nan;96305.63;4946208;28;20863;-80
2023/10/20 11:58:12;;;;;;;0.90;0.80;;;;;;;17.09;nan;96301.31;4945510;28;20210;-82
2023/10/20 12:00:41;;;;;;;0.80;0.70;;;;;;;17.07;nan;96295.44;4942828;28;20227;-82
2023/10/20 12:03:08;;;;;;;1.33;0.90;;;;;;;17.09;nan;96303.16;4943915;28;20459;-80
2023/10/20 12:05:36;;;;;;;1.00;0.90;;;;;;;17.10;nan;96304.81;4946909;28;20205;-83
2023/10/20 12:08:04;;;;;;;1.10;0.80;;;;;;;17.07;nan;96315.84;4951895;28;20468;-83
2023/10/20 12:10:31;;;;;;;1.83;1.63;;;;;;;17.04;nan;96311.81;4949639;28;20452;-82
2023/10/20 12:12:57;;;;;;;2.30;1.17;;;;;;;17.02;nan;96308.56;4950327;28;20475;-82
2023/10/20 12:15:22;;;;;;;1.50;1.27;;;;;;;17.01;nan;96306.91;4953156;28;20544;-82
2023/10/20 12:17:47;;;;;;;2.73;1.40;;;;;;;17.05;nan;96297.50;4951177;28;20464;-81
2023/10/20 12:20:13;;;;;;;3.63;1.47;;;;;;;17.07;nan;96299.94;4947236;28;20302;-84